sensor_id;sensor_type;location;lat;lon;timestamp;P1;durP1;ratioP1;P2;durP2;ratioP2
64313;SDS011;50650;48.180;11.524;2023-05-07T00:02:20;12.93;;;5.03;;
64313;SDS011;50650;48.180;11.524;2023-05-07T00:04:47;8.88;;;5.28;;
64313;SDS011;50650;48.180;11.524;2023-05-07T00:07:15;8.00;;;5.47;;
64313;SDS011;50650;48.180;11.524;2023-05-07T00:09:41;10.30;;;5.53;;
64313;SDS011;50650;48.180;11.524;2023-05-07T00:12:08;7.93;;;5.32;;
64313;SDS011;50650;48.180;11.524;2023-05-07T00:14:34;9.88;;;5.35;;
64313;SDS011;50650;48.180;11.524;2023-05-07T00:17:03;9.20;;;5.40;;
64313;SDS011;50650;48.180;11.524;2023-05-07T00:19:29;11.10;;;6.18;;
64313;SDS011;50650;48.180;11.524;2023-05-07T00:21:56;11.48;;;6.03;;
64313;SDS011;50650;48.180;11.524;2023-05-07T00:24:24;8.07;;;4.78;;
64313;SDS011;50650;48.180;11.524;2023-05-07T00:26:51;11.38;;;5.47;;
64313;SDS011;50650;48.180;11.524;2023-05-07T00:29:17;8.63;;;5.60;;
64313;SDS011;50650;48.180;11.524;2023-05-07T00:31:44;9.15;;;5.50;;
64313;SDS011;50650;48.180;11.524;2023-05-07T00:34:10;9.43;;;6.03;;
64313;SDS011;50650;48.180;11.524;2023-05-07T00:36:37;8.77;;;5.78;;
64313;SDS011;50650;48.180;11.524;2023-05-07T00:39:03;9.15;;;5.38;;
64313;SDS011;50650;48.180;11.524;2023-05-07T00:41:31;8.60;;;5.88;;
64313;SDS011;50650;48.180;11.524;2023-05-07T00:43:57;10.88;;;5.43;;
64313;SDS011;50650;48.180;11.524;2023-05-07T00:46:24;11.57;;;6.10;;
64313;SDS011;50650;48.180;11.524;2023-05-07T00:48:50;10.23;;;5.55;;
64313;SDS011;50650;48.180;11.524;2023-05-07T00:51:17;11.25;;;5.55;;
64313;SDS011;50650;48.180;11.524;2023-05-07T00:53:44;9.07;;;6.20;;
64313;SDS011;50650;48.180;11.524;2023-05-07T00:56:11;9.25;;;5.90;;
64313;SDS011;50650;48.180;11.524;2023-05-07T00:58:39;10.18;;;6.40;;
64313;SDS011;50650;48.180;11.524;2023-05-07T01:01:06;10.35;;;7.00;;
64313;SDS011;50650;48.180;11.524;2023-05-07T01:03:33;12.50;;;8.00;;
64313;SDS011;50650;48.180;11.524;2023-05-07T01:06:00;16.33;;;8.23;;
64313;SDS011;50650;48.180;11.524;2023-05-07T01:08:30;13.15;;;8.60;;
64313;SDS011;50650;48.180;11.524;2023-05-07T01:10:57;15.43;;;9.55;;
64313;SDS011;50650;48.180;11.524;2023-05-07T01:13:24;12.80;;;9.38;;
64313;SDS011;50650;48.180;11.524;2023-05-07T01:15:52;13.23;;;8.85;;
64313;SDS011;50650;48.180;11.524;2023-05-07T01:18:18;14.40;;;8.43;;
64313;SDS011;50650;48.180;11.524;2023-05-07T01:20:45;10.15;;;6.28;;
64313;SDS011;50650;48.180;11.524;2023-05-07T01:23:13;12.05;;;6.80;;
64313;SDS011;50650;48.180;11.524;2023-05-07T01:25:39;10.20;;;7.35;;
64313;SDS011;50650;48.180;11.524;2023-05-07T01:28:05;10.43;;;6.72;;
64313;SDS011;50650;48.180;11.524;2023-05-07T01:30:32;12.13;;;7.00;;
64313;SDS011;50650;48.180;11.524;2023-05-07T01:32:59;14.60;;;6.68;;
64313;SDS011;50650;48.180;11.524;2023-05-07T01:35:30;9.15;;;6.43;;
64313;SDS011;50650;48.180;11.524;2023-05-07T01:37:58;9.75;;;6.55;;
64313;SDS011;50650;48.180;11.524;2023-05-07T01:40:27;10.85;;;6.68;;
64313;SDS011;50650;48.180;11.524;2023-05-07T01:42:54;10.93;;;6.55;;
64313;SDS011;50650;48.180;11.524;2023-05-07T01:45:20;10.95;;;7.13;;
64313;SDS011;50650;48.180;11.524;2023-05-07T01:47:47;13.18;;;7.30;;
64313;SDS011;50650;48.180;11.524;2023-05-07T01:50:14;11.88;;;6.30;;
64313;SDS011;50650;48.180;11.524;2023-05-07T01:52:43;11.25;;;7.18;;
64313;SDS011;50650;48.180;11.524;2023-05-07T01:55:09;9.10;;;5.43;;
64313;SDS011;50650;48.180;11.524;2023-05-07T01:57:37;11.38;;;6.55;;
64313;SDS011;50650;48.180;11.524;2023-05-07T02:00:04;11.88;;;6.55;;
64313;SDS011;50650;48.180;11.524;2023-05-07T02:02:31;13.15;;;6.53;;
64313;SDS011;50650;48.180;11.524;2023-05-07T02:04:58;8.27;;;5.63;;
64313;SDS011;50650;48.180;11.524;2023-05-07T02:07:25;14.32;;;6.70;;
64313;SDS011;50650;48.180;11.524;2023-05-07T02:09:54;8.52;;;5.75;;
64313;SDS011;50650;48.180;11.524;2023-05-07T02:12:21;9.60;;;6.35;;
64313;SDS011;50650;48.180;11.524;2023-05-07T02:14:49;9.02;;;5.45;;
64313;SDS011;50650;48.180;11.524;2023-05-07T02:17:15;9.55;;;5.78;;
64313;SDS011;50650;48.180;11.524;2023-05-07T02:19:45;8.30;;;5.68;;
64313;SDS011;50650;48.180;11.524;2023-05-07T02:22:11;8.93;;;5.78;;
64313;SDS011;50650;48.180;11.524;2023-05-07T02:24:37;8.13;;;5.50;;
64313;SDS011;50650;48.180;11.524;2023-05-07T02:27:04;9.05;;;5.25;;
64313;SDS011;50650;48.180;11.524;2023-05-07T02:29:30;9.25;;;5.82;;
64313;SDS011;50650;48.180;11.524;2023-05-07T02:31:58;7.70;;;5.43;;
64313;SDS011;50650;48.180;11.524;2023-05-07T02:34:24;10.15;;;5.72;;
64313;SDS011;50650;48.180;11.524;2023-05-07T02:36:51;8.70;;;5.72;;
64313;SDS011;50650;48.180;11.524;2023-05-07T02:39:17;8.48;;;5.43;;
64313;SDS011;50650;48.180;11.524;2023-05-07T02:41:44;10.65;;;6.15;;
64313;SDS011;50650;48.180;11.524;2023-05-07T02:44:10;9.88;;;5.45;;
64313;SDS011;50650;48.180;11.524;2023-05-07T02:46:36;10.23;;;6.03;;
64313;SDS011;50650;48.180;11.524;2023-05-07T02:49:04;8.82;;;5.93;;
64313;SDS011;50650;48.180;11.524;2023-05-07T02:51:31;9.52;;;5.65;;
64313;SDS011;50650;48.180;11.524;2023-05-07T02:53:57;9.98;;;5.10;;
64313;SDS011;50650;48.180;11.524;2023-05-07T02:56:25;8.95;;;5.75;;
64313;SDS011;50650;48.180;11.524;2023-05-07T02:58:52;8.80;;;5.30;;
64313;SDS011;50650;48.180;11.524;2023-05-07T03:01:18;9.07;;;5.20;;
64313;SDS011;50650;48.180;11.524;2023-05-07T03:03:45;9.80;;;5.25;;
64313;SDS011;50650;48.180;11.524;2023-05-07T03:06:13;7.35;;;5.00;;
64313;SDS011;50650;48.180;11.524;2023-05-07T03:08:40;7.68;;;5.43;;
64313;SDS011;50650;48.180;11.524;2023-05-07T03:11:06;7.93;;;5.25;;
64313;SDS011;50650;48.180;11.524;2023-05-07T03:13:33;9.60;;;5.10;;
64313;SDS011;50650;48.180;11.524;2023-05-07T03:15:59;7.40;;;5.10;;
64313;SDS011;50650;48.180;11.524;2023-05-07T03:18:26;9.23;;;5.38;;
64313;SDS011;50650;48.180;11.524;2023-05-07T03:20:52;7.82;;;5.68;;
64313;SDS011;50650;48.180;11.524;2023-05-07T03:23:20;7.88;;;4.80;;
64313;SDS011;50650;48.180;11.524;2023-05-07T03:25:46;10.95;;;4.95;;
64313;SDS011;50650;48.180;11.524;2023-05-07T03:28:13;8.93;;;5.25;;
64313;SDS011;50650;48.180;11.524;2023-05-07T03:30:39;11.00;;;5.80;;
64313;SDS011;50650;48.180;11.524;2023-05-07T03:33:05;8.73;;;6.25;;
64313;SDS011;50650;48.180;11.524;2023-05-07T03:35:32;8.45;;;5.95;;
64313;SDS011;50650;48.180;11.524;2023-05-07T03:37:58;8.32;;;6.05;;
64313;SDS011;50650;48.180;11.524;2023-05-07T03:40:26;8.80;;;6.03;;
64313;SDS011;50650;48.180;11.524;2023-05-07T03:42:52;12.10;;;6.03;;
64313;SDS011;50650;48.180;11.524;2023-05-07T03:45:19;9.05;;;6.30;;
64313;SDS011;50650;48.180;11.524;2023-05-07T03:47:45;8.07;;;5.28;;
64313;SDS011;50650;48.180;11.524;2023-05-07T03:50:12;7.70;;;5.03;;
64313;SDS011;50650;48.180;11.524;2023-05-07T03:52:38;8.43;;;5.75;;
64313;SDS011;50650;48.180;11.524;2023-05-07T03:55:05;9.82;;;5.35;;
64313;SDS011;50650;48.180;11.524;2023-05-07T03:57:34;14.25;;;7.28;;
64313;SDS011;50650;48.180;11.524;2023-05-07T04:00:00;8.98;;;6.07;;
64313;SDS011;50650;48.180;11.524;2023-05-07T04:02:28;9.32;;;6.28;;
64313;SDS011;50650;48.180;11.524;2023-05-07T04:04:54;9.30;;;5.78;;
64313;SDS011;50650;48.180;11.524;2023-05-07T04:07:21;7.60;;;5.82;;
64313;SDS011;50650;48.180;11.524;2023-05-07T04:09:48;8.63;;;6.10;;
64313;SDS011;50650;48.180;11.524;2023-05-07T04:12:17;10.93;;;6.38;;
64313;SDS011;50650;48.180;11.524;2023-05-07T04:14:45;11.98;;;6.82;;
64313;SDS011;50650;48.180;11.524;2023-05-07T04:17:12;11.77;;;6.78;;
64313;SDS011;50650;48.180;11.524;2023-05-07T04:19:38;11.38;;;7.32;;
64313;SDS011;50650;48.180;11.524;2023-05-07T04:22:04;9.77;;;6.75;;
64313;SDS011;50650;48.180;11.524;2023-05-07T04:24:31;12.10;;;7.15;;
64313;SDS011;50650;48.180;11.524;2023-05-07T04:26:58;10.50;;;6.75;;
64313;SDS011;50650;48.180;11.524;2023-05-07T04:29:25;10.55;;;6.22;;
64313;SDS011;50650;48.180;11.524;2023-05-07T04:31:52;9.65;;;6.32;;
64313;SDS011;50650;48.180;11.524;2023-05-07T04:34:20;9.55;;;6.25;;
64313;SDS011;50650;48.180;11.524;2023-05-07T04:36:50;8.18;;;5.75;;
64313;SDS011;50650;48.180;11.524;2023-05-07T04:39:16;10.15;;;5.88;;
64313;SDS011;50650;48.180;11.524;2023-05-07T04:41:43;9.07;;;5.93;;
64313;SDS011;50650;48.180;11.524;2023-05-07T04:44:09;9.07;;;6.15;;
64313;SDS011;50650;48.180;11.524;2023-05-07T04:46:36;8.75;;;6.28;;
64313;SDS011;50650;48.180;11.524;2023-05-07T04:49:03;9.15;;;5.80;;
64313;SDS011;50650;48.180;11.524;2023-05-07T04:51:30;8.02;;;5.55;;
64313;SDS011;50650;48.180;11.524;2023-05-07T04:53:57;8.07;;;5.63;;
64313;SDS011;50650;48.180;11.524;2023-05-07T04:56:24;8.75;;;6.07;;
64313;SDS011;50650;48.180;11.524;2023-05-07T04:58:53;10.88;;;5.40;;
64313;SDS011;50650;48.180;11.524;2023-05-07T05:01:19;9.43;;;5.88;;
64313;SDS011;50650;48.180;11.524;2023-05-07T05:03:46;8.73;;;6.03;;
64313;SDS011;50650;48.180;11.524;2023-05-07T05:06:13;9.32;;;5.47;;
64313;SDS011;50650;48.180;11.524;2023-05-07T05:08:40;8.80;;;6.03;;
64313;SDS011;50650;48.180;11.524;2023-05-07T05:11:06;10.05;;;5.97;;
64313;SDS011;50650;48.180;11.524;2023-05-07T05:13:32;8.10;;;6.03;;
64313;SDS011;50650;48.180;11.524;2023-05-07T05:15:59;10.25;;;6.07;;
64313;SDS011;50650;48.180;11.524;2023-05-07T05:18:25;7.20;;;5.70;;
64313;SDS011;50650;48.180;11.524;2023-05-07T05:20:52;7.32;;;5.20;;
64313;SDS011;50650;48.180;11.524;2023-05-07T05:23:19;7.68;;;5.22;;
64313;SDS011;50650;48.180;11.524;2023-05-07T05:25:46;6.10;;;5.28;;
64313;SDS011;50650;48.180;11.524;2023-05-07T05:28:12;7.75;;;4.95;;
64313;SDS011;50650;48.180;11.524;2023-05-07T05:30:39;9.52;;;5.20;;
64313;SDS011;50650;48.180;11.524;2023-05-07T05:33:05;8.15;;;5.20;;
64313;SDS011;50650;48.180;11.524;2023-05-07T05:35:31;7.93;;;5.78;;
64313;SDS011;50650;48.180;11.524;2023-05-07T05:37:58;9.85;;;5.72;;
64313;SDS011;50650;48.180;11.524;2023-05-07T05:40:26;34.17;;;5.43;;
64313;SDS011;50650;48.180;11.524;2023-05-07T05:42:52;13.02;;;5.70;;
64313;SDS011;50650;48.180;11.524;2023-05-07T05:45:18;7.60;;;5.03;;
64313;SDS011;50650;48.180;11.524;2023-05-07T05:47:45;11.25;;;5.35;;
64313;SDS011;50650;48.180;11.524;2023-05-07T05:50:11;8.25;;;5.03;;
64313;SDS011;50650;48.180;11.524;2023-05-07T05:52:37;11.80;;;4.93;;
64313;SDS011;50650;48.180;11.524;2023-05-07T05:55:06;7.88;;;4.18;;
64313;SDS011;50650;48.180;11.524;2023-05-07T05:57:34;6.68;;;4.70;;
64313;SDS011;50650;48.180;11.524;2023-05-07T06:00:01;6.18;;;3.97;;
64313;SDS011;50650;48.180;11.524;2023-05-07T06:02:28;6.22;;;4.45;;
64313;SDS011;50650;48.180;11.524;2023-05-07T06:04:55;6.30;;;3.65;;
64313;SDS011;50650;48.180;11.524;2023-05-07T06:07:21;6.13;;;2.75;;
64313;SDS011;50650;48.180;11.524;2023-05-07T06:09:48;4.40;;;3.17;;
64313;SDS011;50650;48.180;11.524;2023-05-07T06:12:17;7.80;;;3.22;;
64313;SDS011;50650;48.180;11.524;2023-05-07T06:14:45;4.13;;;3.03;;
64313;SDS011;50650;48.180;11.524;2023-05-07T06:17:11;5.43;;;2.80;;
64313;SDS011;50650;48.180;11.524;2023-05-07T06:19:37;5.20;;;2.42;;
64313;SDS011;50650;48.180;11.524;2023-05-07T06:22:04;3.45;;;2.40;;
64313;SDS011;50650;48.180;11.524;2023-05-07T06:24:30;4.15;;;2.33;;
64313;SDS011;50650;48.180;11.524;2023-05-07T06:26:56;3.03;;;2.40;;
64313;SDS011;50650;48.180;11.524;2023-05-07T06:29:23;3.58;;;2.47;;
64313;SDS011;50650;48.180;11.524;2023-05-07T06:31:52;3.28;;;2.53;;
64313;SDS011;50650;48.180;11.524;2023-05-07T06:34:18;3.92;;;2.67;;
64313;SDS011;50650;48.180;11.524;2023-05-07T06:36:44;2.92;;;2.40;;
64313;SDS011;50650;48.180;11.524;2023-05-07T06:39:11;4.68;;;2.30;;
64313;SDS011;50650;48.180;11.524;2023-05-07T06:41:40;3.42;;;2.30;;
64313;SDS011;50650;48.180;11.524;2023-05-07T06:44:07;4.15;;;2.10;;
64313;SDS011;50650;48.180;11.524;2023-05-07T06:46:33;2.80;;;1.98;;
64313;SDS011;50650;48.180;11.524;2023-05-07T06:49:01;5.32;;;2.40;;
64313;SDS011;50650;48.180;11.524;2023-05-07T06:51:27;3.25;;;1.90;;
64313;SDS011;50650;48.180;11.524;2023-05-07T06:53:54;4.95;;;2.00;;
64313;SDS011;50650;48.180;11.524;2023-05-07T06:56:23;3.20;;;2.20;;
64313;SDS011;50650;48.180;11.524;2023-05-07T06:58:50;3.22;;;1.85;;
64313;SDS011;50650;48.180;11.524;2023-05-07T07:01:16;13.68;;;2.05;;
64313;SDS011;50650;48.180;11.524;2023-05-07T07:03:42;6.40;;;1.70;;
64313;SDS011;50650;48.180;11.524;2023-05-07T07:06:10;3.25;;;1.80;;
64313;SDS011;50650;48.180;11.524;2023-05-07T07:08:36;7.53;;;1.88;;
64313;SDS011;50650;48.180;11.524;2023-05-07T07:11:04;2.50;;;1.80;;
64313;SDS011;50650;48.180;11.524;2023-05-07T07:13:30;4.43;;;2.40;;
64313;SDS011;50650;48.180;11.524;2023-05-07T07:15:57;2.97;;;1.80;;
64313;SDS011;50650;48.180;11.524;2023-05-07T07:18:23;2.83;;;1.63;;
64313;SDS011;50650;48.180;11.524;2023-05-07T07:20:49;3.38;;;1.75;;
64313;SDS011;50650;48.180;11.524;2023-05-07T07:23:17;5.47;;;1.90;;
64313;SDS011;50650;48.180;11.524;2023-05-07T07:25:44;3.97;;;1.80;;
64313;SDS011;50650;48.180;11.524;2023-05-07T07:28:10;2.40;;;1.65;;
64313;SDS011;50650;48.180;11.524;2023-05-07T07:30:37;4.47;;;1.90;;
64313;SDS011;50650;48.180;11.524;2023-05-07T07:33:03;4.10;;;1.67;;
64313;SDS011;50650;48.180;11.524;2023-05-07T07:35:30;3.63;;;1.70;;
64313;SDS011;50650;48.180;11.524;2023-05-07T07:37:56;2.53;;;1.70;;
64313;SDS011;50650;48.180;11.524;2023-05-07T07:40:24;3.45;;;1.98;;
64313;SDS011;50650;48.180;11.524;2023-05-07T07:42:51;2.78;;;1.58;;
64313;SDS011;50650;48.180;11.524;2023-05-07T07:45:17;3.47;;;1.70;;
64313;SDS011;50650;48.180;11.524;2023-05-07T07:47:46;2.55;;;1.77;;
64313;SDS011;50650;48.180;11.524;2023-05-07T07:50:12;3.50;;;1.80;;
64313;SDS011;50650;48.180;11.524;2023-05-07T07:52:39;4.90;;;1.73;;
64313;SDS011;50650;48.180;11.524;2023-05-07T07:55:06;2.95;;;1.70;;
64313;SDS011;50650;48.180;11.524;2023-05-07T07:57:34;2.97;;;2.10;;
64313;SDS011;50650;48.180;11.524;2023-05-07T08:00:01;3.92;;;2.00;;
64313;SDS011;50650;48.180;11.524;2023-05-07T08:02:27;3.92;;;2.35;;
64313;SDS011;50650;48.180;11.524;2023-05-07T08:04:53;4.40;;;2.40;;
64313;SDS011;50650;48.180;11.524;2023-05-07T08:07:20;3.17;;;1.90;;
64313;SDS011;50650;48.180;11.524;2023-05-07T08:09:47;3.15;;;2.22;;
64313;SDS011;50650;48.180;11.524;2023-05-07T08:12:14;3.30;;;2.00;;
64313;SDS011;50650;48.180;11.524;2023-05-07T08:14:42;4.15;;;1.80;;
64313;SDS011;50650;48.180;11.524;2023-05-07T08:17:08;3.40;;;2.15;;
64313;SDS011;50650;48.180;11.524;2023-05-07T08:19:35;3.78;;;2.08;;
64313;SDS011;50650;48.180;11.524;2023-05-07T08:22:02;2.30;;;1.70;;
64313;SDS011;50650;48.180;11.524;2023-05-07T08:24:29;3.80;;;2.00;;
64313;SDS011;50650;48.180;11.524;2023-05-07T08:26:55;3.58;;;2.03;;
64313;SDS011;50650;48.180;11.524;2023-05-07T08:29:21;5.50;;;1.83;;
64313;SDS011;50650;48.180;11.524;2023-05-07T08:31:49;3.67;;;1.88;;
64313;SDS011;50650;48.180;11.524;2023-05-07T08:34:16;2.38;;;1.70;;
64313;SDS011;50650;48.180;11.524;2023-05-07T08:36:42;2.40;;;1.58;;
64313;SDS011;50650;48.180;11.524;2023-05-07T08:39:08;5.63;;;2.20;;
64313;SDS011;50650;48.180;11.524;2023-05-07T08:41:35;3.55;;;1.90;;
64313;SDS011;50650;48.180;11.524;2023-05-07T08:44:02;6.18;;;2.08;;
64313;SDS011;50650;48.180;11.524;2023-05-07T08:46:30;4.05;;;2.33;;
64313;SDS011;50650;48.180;11.524;2023-05-07T08:48:59;3.65;;;2.35;;
64313;SDS011;50650;48.180;11.524;2023-05-07T08:51:25;5.57;;;2.25;;
64313;SDS011;50650;48.180;11.524;2023-05-07T08:53:52;3.15;;;1.95;;
64313;SDS011;50650;48.180;11.524;2023-05-07T08:56:18;3.05;;;2.20;;
64313;SDS011;50650;48.180;11.524;2023-05-07T08:58:46;4.47;;;2.63;;
64313;SDS011;50650;48.180;11.524;2023-05-07T09:01:13;2.92;;;2.00;;
64313;SDS011;50650;48.180;11.524;2023-05-07T09:03:40;2.60;;;2.10;;
64313;SDS011;50650;48.180;11.524;2023-05-07T09:06:08;3.78;;;2.00;;
64313;SDS011;50650;48.180;11.524;2023-05-07T09:08:35;4.32;;;2.00;;
64313;SDS011;50650;48.180;11.524;2023-05-07T09:11:02;5.15;;;2.38;;
64313;SDS011;50650;48.180;11.524;2023-05-07T09:13:29;4.60;;;1.88;;
64313;SDS011;50650;48.180;11.524;2023-05-07T09:15:55;3.85;;;2.00;;
64313;SDS011;50650;48.180;11.524;2023-05-07T09:18:23;4.68;;;1.92;;
64313;SDS011;50650;48.180;11.524;2023-05-07T09:20:49;3.90;;;1.80;;
64313;SDS011;50650;48.180;11.524;2023-05-07T09:23:18;3.67;;;1.90;;
64313;SDS011;50650;48.180;11.524;2023-05-07T09:25:44;5.93;;;2.05;;
64313;SDS011;50650;48.180;11.524;2023-05-07T09:28:10;4.35;;;1.95;;
64313;SDS011;50650;48.180;11.524;2023-05-07T09:30:37;3.17;;;1.88;;
64313;SDS011;50650;48.180;11.524;2023-05-07T09:33:03;2.55;;;1.73;;
64313;SDS011;50650;48.180;11.524;2023-05-07T09:35:30;3.20;;;1.88;;
64313;SDS011;50650;48.180;11.524;2023-05-07T09:37:57;3.80;;;1.83;;
64313;SDS011;50650;48.180;11.524;2023-05-07T09:40:26;3.00;;;2.20;;
64313;SDS011;50650;48.180;11.524;2023-05-07T09:42:53;2.00;;;1.60;;
64313;SDS011;50650;48.180;11.524;2023-05-07T09:45:22;3.67;;;1.90;;
64313;SDS011;50650;48.180;11.524;2023-05-07T09:47:53;2.63;;;1.90;;
64313;SDS011;50650;48.180;11.524;2023-05-07T09:50:20;1.65;;;1.20;;
64313;SDS011;50650;48.180;11.524;2023-05-07T09:52:48;5.50;;;2.13;;
64313;SDS011;50650;48.180;11.524;2023-05-07T09:55:15;2.45;;;1.63;;
64313;SDS011;50650;48.180;11.524;2023-05-07T09:57:43;1.65;;;1.00;;
64313;SDS011;50650;48.180;11.524;2023-05-07T10:00:10;5.90;;;3.50;;
64313;SDS011;50650;48.180;11.524;2023-05-07T10:02:37;9.52;;;4.30;;
64313;SDS011;50650;48.180;11.524;2023-05-07T10:05:13;5.13;;;3.00;;
64313;SDS011;50650;48.180;11.524;2023-05-07T10:07:40;16.73;;;9.80;;
64313;SDS011;50650;48.180;11.524;2023-05-07T10:10:07;3.90;;;2.60;;
64313;SDS011;50650;48.180;11.524;2023-05-07T10:12:34;25.10;;;14.75;;
64313;SDS011;50650;48.180;11.524;2023-05-07T10:15:05;63.55;;;39.35;;
64313;SDS011;50650;48.180;11.524;2023-05-07T10:17:33;26.55;;;15.43;;
64313;SDS011;50650;48.180;11.524;2023-05-07T10:20:01;2.70;;;1.70;;
64313;SDS011;50650;48.180;11.524;2023-05-07T10:22:27;44.35;;;25.70;;
64313;SDS011;50650;48.180;11.524;2023-05-07T10:24:55;13.00;;;8.05;;
64313;SDS011;50650;48.180;11.524;2023-05-07T10:27:23;10.25;;;5.75;;
64313;SDS011;50650;48.180;11.524;2023-05-07T10:29:52;5.15;;;1.90;;
64313;SDS011;50650;48.180;11.524;2023-05-07T10:32:33;9.93;;;4.32;;
64313;SDS011;50650;48.180;11.524;2023-05-07T10:35:04;7.13;;;3.30;;
64313;SDS011;50650;48.180;11.524;2023-05-07T10:37:32;2.67;;;1.90;;
64313;SDS011;50650;48.180;11.524;2023-05-07T10:39:59;2.40;;;1.20;;
64313;SDS011;50650;48.180;11.524;2023-05-07T10:42:26;4.32;;;1.58;;
64313;SDS011;50650;48.180;11.524;2023-05-07T10:44:52;5.50;;;1.73;;
64313;SDS011;50650;48.180;11.524;2023-05-07T10:47:18;3.42;;;1.40;;
64313;SDS011;50650;48.180;11.524;2023-05-07T10:55:31;2.42;;;1.10;;
64313;SDS011;50650;48.180;11.524;2023-05-07T10:57:58;2.63;;;1.10;;
64313;SDS011;50650;48.180;11.524;2023-05-07T11:00:55;1.40;;;0.97;;
64313;SDS011;50650;48.180;11.524;2023-05-07T11:03:22;4.45;;;1.42;;
64313;SDS011;50650;48.180;11.524;2023-05-07T11:06:04;4.32;;;1.50;;
64313;SDS011;50650;48.180;11.524;2023-05-07T11:11:19;4.93;;;1.75;;
64313;SDS011;50650;48.180;11.524;2023-05-07T11:14:00;1.92;;;1.67;;
64313;SDS011;50650;48.180;11.524;2023-05-07T11:16:27;3.55;;;1.58;;
64313;SDS011;50650;48.180;11.524;2023-05-07T11:18:55;3.75;;;1.40;;
64313;SDS011;50650;48.180;11.524;2023-05-07T11:21:31;2.63;;;2.10;;
64313;SDS011;50650;48.180;11.524;2023-05-07T11:23:58;2.67;;;1.80;;
64313;SDS011;50650;48.180;11.524;2023-05-07T11:26:26;2.60;;;1.60;;
64313;SDS011;50650;48.180;11.524;2023-05-07T11:28:54;2.85;;;1.80;;
64313;SDS011;50650;48.180;11.524;2023-05-07T11:31:22;2.42;;;1.33;;
64313;SDS011;50650;48.180;11.524;2023-05-07T11:33:51;2.10;;;1.60;;
64313;SDS011;50650;48.180;11.524;2023-05-07T11:36:18;2.67;;;1.60;;
64313;SDS011;50650;48.180;11.524;2023-05-07T11:38:45;2.65;;;1.40;;
64313;SDS011;50650;48.180;11.524;2023-05-07T11:41:12;2.47;;;1.80;;
64313;SDS011;50650;48.180;11.524;2023-05-07T11:43:49;1.98;;;1.70;;
64313;SDS011;50650;48.180;11.524;2023-05-07T11:46:20;3.22;;;2.03;;
64313;SDS011;50650;48.180;11.524;2023-05-07T11:48:47;2.97;;;1.92;;
64313;SDS011;50650;48.180;11.524;2023-05-07T11:51:15;3.15;;;1.88;;
64313;SDS011;50650;48.180;11.524;2023-05-07T11:53:45;2.55;;;1.70;;
64313;SDS011;50650;48.180;11.524;2023-05-07T11:56:15;2.83;;;1.90;;
64313;SDS011;50650;48.180;11.524;2023-05-07T11:58:43;2.95;;;1.60;;
64313;SDS011;50650;48.180;11.524;2023-05-07T12:01:10;2.40;;;1.80;;
64313;SDS011;50650;48.180;11.524;2023-05-07T12:03:39;2.40;;;1.75;;
64313;SDS011;50650;48.180;11.524;2023-05-07T12:06:09;2.67;;;1.80;;
64313;SDS011;50650;48.180;11.524;2023-05-07T12:08:36;2.97;;;1.60;;
64313;SDS011;50650;48.180;11.524;2023-05-07T12:11:03;2.08;;;1.58;;
64313;SDS011;50650;48.180;11.524;2023-05-07T12:13:33;3.13;;;1.60;;
64313;SDS011;50650;48.180;11.524;2023-05-07T12:15:59;3.03;;;1.73;;
64313;SDS011;50650;48.180;11.524;2023-05-07T12:18:28;2.70;;;1.65;;
64313;SDS011;50650;48.180;11.524;2023-05-07T12:20:58;2.88;;;2.17;;
64313;SDS011;50650;48.180;11.524;2023-05-07T12:23:26;3.33;;;1.48;;
64313;SDS011;50650;48.180;11.524;2023-05-07T12:25:53;2.50;;;1.70;;
64313;SDS011;50650;48.180;11.524;2023-05-07T12:28:19;2.58;;;1.70;;
64313;SDS011;50650;48.180;11.524;2023-05-07T12:30:50;2.72;;;1.40;;
64313;SDS011;50650;48.180;11.524;2023-05-07T12:33:17;1.73;;;1.50;;
64313;SDS011;50650;48.180;11.524;2023-05-07T12:35:46;2.22;;;1.65;;
64313;SDS011;50650;48.180;11.524;2023-05-07T12:38:14;2.78;;;1.40;;
64313;SDS011;50650;48.180;11.524;2023-05-07T12:40:44;3.38;;;1.38;;
64313;SDS011;50650;48.180;11.524;2023-05-07T12:43:15;2.42;;;1.42;;
64313;SDS011;50650;48.180;11.524;2023-05-07T12:45:46;2.58;;;1.27;;
64313;SDS011;50650;48.180;11.524;2023-05-07T12:48:13;1.48;;;1.20;;
64313;SDS011;50650;48.180;11.524;2023-05-07T12:50:39;4.55;;;1.30;;
64313;SDS011;50650;48.180;11.524;2023-05-07T12:53:06;4.07;;;1.30;;
64313;SDS011;50650;48.180;11.524;2023-05-07T12:55:40;4.13;;;1.20;;
64313;SDS011;50650;48.180;11.524;2023-05-07T12:58:08;2.05;;;1.25;;
64313;SDS011;50650;48.180;11.524;2023-05-07T13:00:41;2.10;;;1.20;;
64313;SDS011;50650;48.180;11.524;2023-05-07T13:03:08;2.13;;;1.05;;
64313;SDS011;50650;48.180;11.524;2023-05-07T13:05:35;1.88;;;1.05;;
64313;SDS011;50650;48.180;11.524;2023-05-07T13:08:01;1.90;;;1.30;;
64313;SDS011;50650;48.180;11.524;2023-05-07T13:10:27;3.45;;;1.30;;
64313;SDS011;50650;48.180;11.524;2023-05-07T13:12:54;6.60;;;1.23;;
64313;SDS011;50650;48.180;11.524;2023-05-07T13:15:22;1.30;;;1.08;;
64313;SDS011;50650;48.180;11.524;2023-05-07T13:17:48;2.88;;;1.10;;
64313;SDS011;50650;48.180;11.524;2023-05-07T13:20:15;2.50;;;1.70;;
64313;SDS011;50650;48.180;11.524;2023-05-07T13:22:41;2.55;;;1.15;;
64313;SDS011;50650;48.180;11.524;2023-05-07T13:25:08;2.28;;;0.90;;
64313;SDS011;50650;48.180;11.524;2023-05-07T13:27:35;2.78;;;1.25;;
64313;SDS011;50650;48.180;11.524;2023-05-07T13:30:02;2.22;;;1.33;;
64313;SDS011;50650;48.180;11.524;2023-05-07T13:32:30;2.97;;;1.50;;
64313;SDS011;50650;48.180;11.524;2023-05-07T13:34:57;2.22;;;1.50;;
64313;SDS011;50650;48.180;11.524;2023-05-07T13:37:24;2.30;;;1.10;;
64313;SDS011;50650;48.180;11.524;2023-05-07T13:39:50;1.88;;;1.30;;
64313;SDS011;50650;48.180;11.524;2023-05-07T13:42:17;3.10;;;1.20;;
64313;SDS011;50650;48.180;11.524;2023-05-07T13:44:43;2.08;;;1.88;;
64313;SDS011;50650;48.180;11.524;2023-05-07T13:47:10;2.85;;;1.60;;
64313;SDS011;50650;48.180;11.524;2023-05-07T13:49:40;5.03;;;1.85;;
64313;SDS011;50650;48.180;11.524;2023-05-07T13:52:06;3.42;;;1.65;;
64313;SDS011;50650;48.180;11.524;2023-05-07T13:54:33;2.28;;;1.67;;
64313;SDS011;50650;48.180;11.524;2023-05-07T13:56:59;3.17;;;2.00;;
64313;SDS011;50650;48.180;11.524;2023-05-07T13:59:28;2.30;;;2.10;;
64313;SDS011;50650;48.180;11.524;2023-05-07T14:01:54;2.13;;;1.60;;
64313;SDS011;50650;48.180;11.524;2023-05-07T14:04:20;2.33;;;1.38;;
64313;SDS011;50650;48.180;11.524;2023-05-07T14:06:48;1.52;;;1.30;;
64313;SDS011;50650;48.180;11.524;2023-05-07T14:09:15;2.25;;;1.50;;
64313;SDS011;50650;48.180;11.524;2023-05-07T14:11:41;4.60;;;2.10;;
64313;SDS011;50650;48.180;11.524;2023-05-07T14:14:08;2.83;;;1.85;;
64313;SDS011;50650;48.180;11.524;2023-05-07T14:16:38;5.03;;;1.83;;
64313;SDS011;50650;48.180;11.524;2023-05-07T14:19:04;2.97;;;1.80;;
64313;SDS011;50650;48.180;11.524;2023-05-07T14:21:31;3.22;;;1.90;;
64313;SDS011;50650;48.180;11.524;2023-05-07T14:23:59;2.85;;;2.10;;
64313;SDS011;50650;48.180;11.524;2023-05-07T14:26:25;2.60;;;1.60;;
64313;SDS011;50650;48.180;11.524;2023-05-07T14:28:53;3.05;;;1.50;;
64313;SDS011;50650;48.180;11.524;2023-05-07T14:31:22;2.83;;;1.55;;
64313;SDS011;50650;48.180;11.524;2023-05-07T14:33:48;2.05;;;1.58;;
64313;SDS011;50650;48.180;11.524;2023-05-07T14:36:15;3.15;;;1.83;;
64313;SDS011;50650;48.180;11.524;2023-05-07T14:38:42;2.78;;;1.65;;
64313;SDS011;50650;48.180;11.524;2023-05-07T14:41:09;2.35;;;1.60;;